Time;durP1;ratioP1;P1;durP2;ratioP2;P2;SDS_P1;SDS_P2;PMS_P1;PMS_P2;Temp;Humidity;BMP_temperature;BMP_pressure;BME280_temperature;BME280_humidity;BME280_pressure;Samples;Min_cycle;Max_cycle;Signal;HPM_P1;HPM_P2
2022/12/21 00:02:21;;;;;;;11.57;5.60;;;2.40;99.90;;;;;;5029372;28;20150;-73
2022/12/21 00:04:47;;;;;;;12.85;6.25;;;2.40;99.90;;;;;;5036617;28;20028;-73
2022/12/21 00:07:13;;;;;;;8.75;5.18;;;2.50;99.90;;;;;;5047271;28;20116;-73
2022/12/21 00:09:39;;;;;;;10.27;5.85;;;2.30;99.90;;;;;;5046342;28;20049;-73
2022/12/21 00:12:04;;;;;;;10.95;5.50;;;2.50;99.90;;;;;;5043164;28;20045;-73
2022/12/21 00:14:30;;;;;;;11.73;6.03;;;2.80;99.90;;;;;;5036906;28;20032;-73
2022/12/21 00:16:56;;;;;;;11.25;5.47;;;2.80;99.90;;;;;;5034420;28;20047;-73
2022/12/21 00:19:21;;;;;;;10.65;5.47;;;2.90;99.90;;;;;;5037578;28;20040;-73
2022/12/21 00:21:47;;;;;;;9.13;5.38;;;2.80;99.90;;;;;;5039054;28;20022;-73
2022/12/21 00:24:13;;;;;;;9.10;5.13;;;2.70;99.90;;;;;;5033874;28;20953;-73
2022/12/21 00:26:39;;;;;;;8.23;4.85;;;2.80;99.90;;;;;;5043357;28;20419;-73
2022/12/21 00:29:05;;;;;;;11.27;6.43;;;2.80;99.90;;;;;;5032730;28;20030;-73
2022/12/21 00:31:33;;;;;;;11.95;6.40;;;2.80;99.90;;;;;;5034756;28;20055;-73
2022/12/21 00:33:59;;;;;;;13.10;5.53;;;2.70;99.90;;;;;;5035425;28;20033;-73
2022/12/21 00:36:26;;;;;;;10.18;5.93;;;2.70;99.90;;;;;;5043725;28;20037;-73
2022/12/21 00:38:52;;;;;;;8.93;5.32;;;2.60;99.90;;;;;;5033642;28;20029;-73
2022/12/21 00:41:20;;;;;;;12.25;5.93;;;2.60;99.90;;;;;;5033540;28;20124;-73
2022/12/21 00:43:47;;;;;;;12.70;6.88;;;2.60;99.90;;;;;;5040803;28;20033;-73
2022/12/21 00:46:33;;;;;;;12.50;5.70;;;2.70;99.90;;;;;;5030212;28;20037;-73
2022/12/21 00:49:02;;;;;;;9.57;4.93;;;2.70;99.90;;;;;;5041671;28;20041;-73
2022/12/21 00:51:29;;;;;;;10.32;4.85;;;2.60;99.90;;;;;;5032661;28;20045;-73
2022/12/21 00:53:56;;;;;;;8.95;5.00;;;2.50;99.90;;;;;;5034850;28;20563;-73
2022/12/21 00:56:23;;;;;;;13.40;7.45;;;2.50;99.90;;;;;;5034370;28;20120;-73
2022/12/21 00:58:50;;;;;;;11.90;6.85;;;2.40;99.90;;;;;;5039416;28;20029;-73
2022/12/21 01:01:19;;;;;;;9.73;5.55;;;2.40;99.90;;;;;;5039648;28;20031;-72
2022/12/21 01:03:45;;;;;;;11.93;5.43;;;2.40;99.90;;;;;;5028190;28;20454;-73
2022/12/21 01:06:19;;;;;;;10.90;6.30;;;2.60;99.90;;;;;;5043057;28;20087;-73
2022/12/21 01:08:45;;;;;;;9.73;5.95;;;2.70;99.90;;;;;;5031282;28;20064;-73
2022/12/21 01:11:13;;;;;;;11.07;5.90;;;2.70;99.90;;;;;;5035588;28;20036;-73
2022/12/21 01:13:40;;;;;;;11.20;5.75;;;2.60;99.90;;;;;;5032986;28;20047;-73
2022/12/21 01:16:18;;;;;;;13.38;5.75;;;2.60;99.90;;;;;;5043010;28;20482;-73
2022/12/21 01:18:45;;;;;;;12.85;6.32;;;2.50;99.90;;;;;;5036900;28;20037;-73
2022/12/21 01:21:20;;;;;;;11.23;5.68;;;2.50;99.90;;;;;;5043222;28;20406;-73
2022/12/21 01:23:47;;;;;;;17.00;5.53;;;2.40;99.90;;;;;;5039370;28;20105;-73
2022/12/21 01:26:14;;;;;;;9.10;4.75;;;2.30;99.90;;;;;;5038541;28;20553;-73
2022/12/21 01:28:39;;;;;;;9.95;5.28;;;2.30;99.90;;;;;;5041225;28;20041;-73
2022/12/21 01:31:05;;;;;;;10.10;4.68;;;2.20;99.90;;;;;;5041909;28;20044;-73
2022/12/21 01:33:31;;;;;;;9.90;5.00;;;2.40;99.90;;;;;;5041872;28;20042;-73
2022/12/21 01:35:57;;;;;;;11.10;5.32;;;2.30;99.90;;;;;;5037277;28;20113;-73
2022/12/21 01:38:22;;;;;;;10.00;5.93;;;2.30;99.90;;;;;;5039488;28;20017;-73
2022/12/21 01:40:48;;;;;;;10.18;4.82;;;2.30;99.90;;;;;;5034953;28;20059;-73
2022/12/21 01:43:49;;;;;;;10.38;4.70;;;2.20;99.90;;;;;;5036212;28;20076;-73
2022/12/21 01:46:42;;;;;;;6.63;4.03;;;2.20;99.90;;;;;;5037893;28;20041;-73
2022/12/21 01:49:12;;;;;;;8.75;4.85;;;2.20;99.90;;;;;;5048195;28;20041;-73
2022/12/21 01:51:40;;;;;;;11.60;5.32;;;2.30;99.90;;;;;;5041103;28;20040;-73
2022/12/21 01:54:30;;;;;;;10.38;5.20;;;2.20;99.90;;;;;;5029570;28;20036;-73
2022/12/21 01:57:00;;;;;;;9.98;4.78;;;2.20;99.90;;;;;;5042667;28;20033;-73
2022/12/21 01:59:34;;;;;;;8.82;4.82;;;2.40;99.90;;;;;;5041524;28;20033;-73
2022/12/21 02:02:03;;;;;;;;;;;2.50;99.90;;;;;;5039647;28;20024;-73
2022/12/21 02:04:29;;;;;;;9.20;4.20;;;2.50;99.90;;;;;;5040860;28;20516;-73
2022/12/21 02:06:57;;;;;;;8.32;4.03;;;2.50;99.90;;;;;;5040511;28;20029;-73
2022/12/21 02:09:25;;;;;;;10.80;4.75;;;2.50;99.90;;;;;;5043959;28;20036;-73
2022/12/21 02:11:52;;;;;;;14.50;4.50;;;2.40;99.90;;;;;;5043701;28;20037;-73
2022/12/21 02:14:18;;;;;;;10.30;5.82;;;2.40;99.90;;;;;;5030546;28;20045;-73
2022/12/21 02:16:47;;;;;;;9.68;4.38;;;2.30;99.90;;;;;;5035841;28;20029;-73
2022/12/21 02:19:31;;;;;;;11.95;5.18;;;2.30;99.90;;;;;;5030972;28;20024;-73
2022/12/21 02:22:02;;;;;;;9.23;5.22;;;2.30;99.90;;;;;;5033793;28;20028;-73
2022/12/21 02:24:56;;;;;;;13.13;5.10;;;2.40;99.90;;;;;;5041360;28;20025;-73
2022/12/21 02:27:41;;;;;;;10.40;4.88;;;2.50;99.90;;;;;;5030297;28;20033;-73
2022/12/21 02:30:19;;;;;;;11.73;5.38;;;2.50;99.90;;;;;;5042492;28;20475;-73
2022/12/21 02:33:12;;;;;;;11.80;5.03;;;2.50;99.90;;;;;;5036125;28;20040;-73
2022/12/21 02:35:56;;;;;;;8.43;4.70;;;2.50;99.90;;;;;;5041924;28;20471;-73
2022/12/21 02:38:29;;;;;;;9.23;4.50;;;2.50;99.90;;;;;;5044768;28;20033;-73
2022/12/21 02:41:22;;;;;;;10.90;5.60;;;2.50;99.90;;;;;;5043747;28;20035;-73
2022/12/21 02:44:24;;;;;;;11.10;5.90;;;2.50;99.90;;;;;;5041963;28;20029;-73
2022/12/21 02:47:22;;;;;;;10.73;5.20;;;2.60;99.90;;;;;;5044798;28;20090;-73
2022/12/21 02:50:02;;;;;;;9.27;5.20;;;2.70;99.90;;;;;;5038405;28;20051;-73
2022/12/21 02:52:28;;;;;;;12.73;6.78;;;2.80;99.90;;;;;;5041941;28;20033;-73
2022/12/21 02:54:58;;;;;;;8.75;4.55;;;2.40;99.90;;;;;;5028745;28;20598;-73
2022/12/21 02:57:31;;;;;;;9.48;5.50;;;2.60;99.90;;;;;;5040648;28;20112;-73
2022/12/21 02:59:59;;;;;;;9.30;4.72;;;2.40;99.90;;;;;;5038306;28;20029;-73
2022/12/21 03:03:47;;;;;;;8.23;3.97;;;2.60;99.90;;;;;;5033378;28;25526;-73
2022/12/21 03:06:18;;;;;;;10.07;4.75;;;2.80;99.90;;;;;;5043287;28;20041;-73
2022/12/21 03:09:32;;;;;;;8.68;4.65;;;3.00;99.90;;;;;;5035104;28;20025;-73
2022/12/21 03:12:03;;;;;;;8.68;4.30;;;2.90;99.90;;;;;;4979393;28;20046;-73
2022/12/21 03:14:56;;;;;;;8.07;5.13;;;2.90;99.90;;;;;;5033136;28;20490;-73
2022/12/21 03:17:39;;;;;;;10.70;5.28;;;2.90;99.90;;;;;;5035639;28;20025;-73
2022/12/21 03:20:28;;;;;;;8.23;4.47;;;2.90;99.90;;;;;;5034711;28;20017;-73
2022/12/21 03:23:00;;;;;;;10.98;4.72;;;2.80;99.90;;;;;;5035201;28;20029;-73
2022/12/21 03:25:40;;;;;;;12.65;6.20;;;2.80;99.90;;;;;;5030809;28;20036;-73
2022/12/21 03:28:11;;;;;;;9.45;4.45;;;2.70;99.90;;;;;;5036999;28;20025;-73
2022/12/21 03:30:45;;;;;;;10.00;5.03;;;2.70;99.90;;;;;;5043300;28;20025;-73
2022/12/21 03:33:17;;;;;;;10.68;5.78;;;2.70;99.90;;;;;;5043757;28;20037;-73
2022/12/21 03:35:54;;;;;;;10.20;5.38;;;2.90;99.90;;;;;;5037201;28;20079;-73
2022/12/21 03:38:27;;;;;;;9.18;4.93;;;2.90;99.90;;;;;;5038425;28;20041;-73
2022/12/21 03:40:56;;;;;;;11.43;5.15;;;2.90;99.90;;;;;;5039837;28;20035;-73
2022/12/21 03:43:32;;;;;;;11.02;5.07;;;2.70;99.90;;;;;;5036692;28;20391;-73
2022/12/21 03:46:03;;;;;;;12.30;5.57;;;2.60;99.90;;;;;;5043165;28;20461;-73
2022/12/21 03:48:51;;;;;;;11.52;5.80;;;2.70;99.90;;;;;;5038865;28;20053;-73
2022/12/21 03:51:31;;;;;;;11.38;5.57;;;2.70;99.90;;;;;;5033387;28;20103;-73
2022/12/21 03:54:05;;;;;;;10.30;4.70;;;2.70;99.90;;;;;;5035018;28;20033;-73
2022/12/21 03:56:34;;;;;;;13.68;6.15;;;2.50;99.90;;;;;;5043895;28;20471;-73
2022/12/21 03:59:00;;;;;;;13.18;5.90;;;2.30;99.90;;;;;;5036995;28;20056;-73
2022/12/21 04:02:03;;;;;;;10.50;5.68;;;2.30;99.90;;;;;;5034343;28;20035;-71
2022/12/21 04:04:35;;;;;;;6.35;4.15;;;2.40;99.90;;;;;;5036809;28;20034;-71
2022/12/21 04:07:05;;;;;;;11.00;4.00;;;2.30;99.90;;;;;;5033091;28;20348;-72
2022/12/21 04:09:31;;;;;;;7.65;4.20;;;2.40;99.90;;;;;;5030011;28;20042;-72
2022/12/21 04:14:43;;;;;;;12.75;5.25;;;2.30;99.90;;;;;;5035517;28;20040;-71
2022/12/21 04:17:08;;;;;;;12.18;4.90;;;2.40;99.90;;;;;;5037812;28;20545;-72
2022/12/21 04:30:37;;;;;;;12.90;5.43;;;2.60;99.90;;;;;;5035658;28;20056;-71
2022/12/21 04:33:04;;;;;;;12.90;4.72;;;2.60;99.90;;;;;;5044020;28;20052;-71
2022/12/21 04:35:30;;;;;;;9.25;4.82;;;2.60;99.90;;;;;;5037604;28;20021;-72
2022/12/21 04:37:55;;;;;;;11.52;5.22;;;2.60;99.90;;;;;;5027240;28;20033;-71
2022/12/21 04:40:21;;;;;;;9.50;5.13;;;2.50;99.90;;;;;;5031694;28;20036;-72
2022/12/21 04:42:46;;;;;;;12.15;5.45;;;2.60;99.90;;;;;;5039590;28;20040;-72
2022/12/21 04:45:12;;;;;;;9.63;4.70;;;2.50;99.90;;;;;;5030019;28;20472;-71
2022/12/21 04:47:38;;;;;;;10.63;5.53;;;2.40;99.90;;;;;;5031517;28;20083;-72
2022/12/21 04:50:04;;;;;;;8.15;4.18;;;2.50;99.90;;;;;;5037727;28;20064;-72
2022/12/21 04:52:31;;;;;;;7.75;4.35;;;2.30;99.90;;;;;;5042684;28;20447;-71
2022/12/21 04:54:56;;;;;;;11.50;5.40;;;2.30;99.90;;;;;;5030909;28;20033;-72
2022/12/21 04:57:22;;;;;;;14.15;5.53;;;2.30;99.90;;;;;;5024213;28;20353;-72
2022/12/21 04:59:48;;;;;;;9.43;4.97;;;2.40;99.90;;;;;;5040163;28;20046;-72
2022/12/21 05:02:14;;;;;;;10.40;5.72;;;2.40;99.90;;;;;;5031441;28;20048;-71
2022/12/21 05:04:40;;;;;;;9.95;5.88;;;2.30;99.90;;;;;;5019243;28;20120;-72
2022/12/21 05:07:06;;;;;;;12.52;7.93;;;2.30;99.90;;;;;;5030286;28;20025;-72
2022/12/21 05:09:32;;;;;;;11.63;8.05;;;2.20;99.90;;;;;;5023173;28;20033;-72
2022/12/21 05:11:57;;;;;;;15.60;8.88;;;2.00;99.90;;;;;;5033249;28;20037;-72
2022/12/21 05:14:24;;;;;;;15.52;8.05;;;1.90;99.90;;;;;;5029687;28;20041;-71
2022/12/21 05:16:50;;;;;;;14.85;8.10;;;1.70;99.90;;;;;;5034333;28;20515;-71
2022/12/21 05:19:16;;;;;;;16.77;6.63;;;1.80;99.90;;;;;;5036588;28;20089;-72
2022/12/21 05:21:42;;;;;;;11.20;6.28;;;1.90;99.90;;;;;;5033718;28;20029;-71
2022/12/21 05:24:08;;;;;;;13.25;7.53;;;1.90;99.90;;;;;;5028103;28;20359;-71
2022/12/21 05:26:33;;;;;;;10.93;6.57;;;1.80;99.90;;;;;;5027214;28;20038;-71
2022/12/21 05:28:59;;;;;;;14.77;7.45;;;1.80;99.90;;;;;;5036603;28;20044;-71
2022/12/21 05:31:25;;;;;;;12.38;7.40;;;1.80;99.90;;;;;;5027313;28;20044;-71
2022/12/21 05:33:52;;;;;;;15.82;7.40;;;1.80;99.90;;;;;;5034276;28;20037;-71
2022/12/21 05:36:17;;;;;;;14.20;7.47;;;1.70;99.90;;;;;;5036215;28;20064;-72
2022/12/21 05:38:44;;;;;;;11.50;7.35;;;1.70;99.90;;;;;;5029796;28;20071;-72
2022/12/21 05:41:11;;;;;;;13.73;7.88;;;1.70;99.90;;;;;;5031697;28;20436;-71
2022/12/21 05:43:37;;;;;;;12.70;7.63;;;1.80;99.90;;;;;;5027374;28;20037;-72
2022/12/21 05:46:04;;;;;;;14.55;7.80;;;1.60;99.90;;;;;;5029569;28;20039;-71
2022/12/21 05:48:31;;;;;;;15.98;7.47;;;1.70;99.90;;;;;;5037881;28;20045;-71
2022/12/21 05:50:57;;;;;;;13.02;7.00;;;1.70;99.90;;;;;;5024904;28;20083;-71
2022/12/21 05:53:23;;;;;;;11.85;6.18;;;1.80;99.90;;;;;;5026643;28;20167;-71
2022/12/21 05:55:49;;;;;;;11.80;7.25;;;1.60;99.90;;;;;;5039646;28;20060;-71
2022/12/21 05:58:15;;;;;;;12.35;7.18;;;1.50;99.90;;;;;;5037287;28;20048;-71
2022/12/21 06:00:41;;;;;;;14.35;8.57;;;1.60;99.90;;;;;;5035707;28;20709;-71
2022/12/21 06:03:07;;;;;;;10.00;5.78;;;1.70;99.90;;;;;;5026073;28;20079;-71
2022/12/21 06:05:36;;;;;;;13.43;6.85;;;1.70;99.90;;;;;;5027171;28;20120;-72
2022/12/21 06:08:03;;;;;;;10.60;6.85;;;1.60;99.90;;;;;;5030681;28;20060;-72
2022/12/21 06:10:28;;;;;;;11.73;6.78;;;1.70;99.90;;;;;;5025026;28;20140;-72
2022/12/21 06:12:54;;;;;;;11.73;6.22;;;1.80;99.90;;;;;;5037315;28;20658;-72
2022/12/21 06:15:20;;;;;;;13.43;6.30;;;1.80;99.90;;;;;;5039945;28;20483;-72
2022/12/21 06:17:45;;;;;;;12.93;7.50;;;1.90;99.90;;;;;;5040814;28;20029;-71
2022/12/21 06:20:11;;;;;;;11.05;5.35;;;1.90;99.90;;;;;;5035573;28;20136;-72
2022/12/21 06:22:37;;;;;;;13.23;6.32;;;1.90;99.90;;;;;;5027173;28;20040;-71
2022/12/21 06:25:03;;;;;;;9.52;5.43;;;1.90;99.90;;;;;;5024952;28;20411;-71
2022/12/21 06:27:29;;;;;;;12.88;6.53;;;2.00;99.90;;;;;;5028187;28;20158;-72
2022/12/21 06:29:54;;;;;;;9.45;5.20;;;1.90;99.90;;;;;;5034674;28;20049;-71
2022/12/21 06:32:20;;;;;;;9.50;6.20;;;1.90;99.90;;;;;;5029512;28;20045;-71
2022/12/21 06:34:46;;;;;;;11.75;5.75;;;1.80;99.90;;;;;;5035973;28;20032;-72
2022/12/21 06:37:11;;;;;;;14.55;6.10;;;1.80;99.90;;;;;;5023403;28;20368;-72
2022/12/21 06:39:37;;;;;;;10.80;6.25;;;1.90;99.90;;;;;;5022845;28;20124;-71
2022/12/21 06:42:03;;;;;;;13.18;7.50;;;2.00;99.90;;;;;;5027026;28;20039;-72
2022/12/21 06:44:29;;;;;;;10.05;6.13;;;1.70;99.90;;;;;;5031986;28;20071;-72
2022/12/21 06:46:54;;;;;;;13.93;6.22;;;1.70;99.90;;;;;;5039486;28;20717;-72
2022/12/21 06:49:20;;;;;;;11.25;5.95;;;1.80;99.90;;;;;;5026010;28;20044;-71
2022/12/21 06:51:46;;;;;;;9.38;4.80;;;1.90;99.90;;;;;;5029349;28;20045;-72
2022/12/21 06:54:11;;;;;;;11.77;5.22;;;1.90;99.90;;;;;;5029381;28;20116;-72
2022/12/21 06:56:37;;;;;;;10.05;4.03;;;1.90;99.90;;;;;;5038296;28;20025;-72
2022/12/21 06:59:03;;;;;;;11.30;5.45;;;1.90;99.90;;;;;;5023978;28;20060;-72
2022/12/21 07:01:32;;;;;;;7.28;4.63;;;1.90;99.90;;;;;;5026180;28;20032;-72
2022/12/21 07:03:57;;;;;;;11.25;5.55;;;2.00;99.90;;;;;;5030168;28;20394;-72
2022/12/21 07:06:27;;;;;;;11.32;6.78;;;2.00;99.90;;;;;;5040518;28;20029;-72
2022/12/21 07:08:53;;;;;;;12.73;6.35;;;2.00;99.90;;;;;;5032137;28;20350;-72
2022/12/21 07:11:21;;;;;;;10.63;6.60;;;2.00;99.90;;;;;;5033800;28;20128;-72
2022/12/21 07:13:49;;;;;;;11.82;6.80;;;2.00;99.90;;;;;;5024840;28;20038;-72
2022/12/21 07:16:15;;;;;;;12.07;6.40;;;2.00;99.90;;;;;;5029096;28;20055;-72
2022/12/21 07:18:41;;;;;;;13.27;7.03;;;2.00;99.90;;;;;;5027119;28;20679;-72
2022/12/21 07:21:11;;;;;;;12.18;6.47;;;2.00;99.90;;;;;;5032407;28;20030;-72
2022/12/21 07:23:37;;;;;;;15.70;6.70;;;2.00;99.90;;;;;;5032572;28;20025;-72
2022/12/21 07:26:08;;;;;;;13.77;6.88;;;2.00;99.90;;;;;;5022708;28;20033;-72
2022/12/21 07:28:34;;;;;;;12.65;5.60;;;2.10;99.90;;;;;;5025763;28;20033;-72
2022/12/21 07:31:08;;;;;;;11.23;6.40;;;2.10;99.90;;;;;;5028443;28;20037;-72
2022/12/21 07:33:34;;;;;;;14.90;7.13;;;2.20;99.90;;;;;;5022908;28;20029;-72
2022/12/21 07:36:01;;;;;;;10.13;5.97;;;2.10;99.90;;;;;;5036833;28;20032;-72
2022/12/21 07:38:28;;;;;;;13.68;5.97;;;2.20;99.90;;;;;;5029309;28;20072;-72
2022/12/21 07:40:58;;;;;;;14.60;6.63;;;2.00;99.90;;;;;;5036150;28;20025;-72
2022/12/21 07:43:24;;;;;;;12.80;7.15;;;1.90;99.90;;;;;;5021630;28;20029;-72
2022/12/21 07:45:50;;;;;;;14.98;7.50;;;1.90;99.90;;;;;;5037099;28;20107;-71
2022/12/21 07:48:16;;;;;;;14.38;7.30;;;2.10;99.90;;;;;;5033183;28;20132;-70
2022/12/21 07:50:42;;;;;;;12.48;7.00;;;2.20;99.90;;;;;;5029628;28;20479;-70
2022/12/21 07:53:07;;;;;;;14.93;6.82;;;2.00;99.90;;;;;;5043169;28;20124;-72
2022/12/21 07:55:33;;;;;;;16.10;7.10;;;2.20;99.90;;;;;;5045194;28;20092;-72
2022/12/21 07:57:59;;;;;;;13.75;7.25;;;2.30;99.90;;;;;;5051545;28;20127;-72
2022/12/21 08:00:24;;;;;;;12.00;6.57;;;2.20;99.90;;;;;;5052263;28;20040;-72
2022/12/21 08:02:50;;;;;;;12.80;7.28;;;2.20;99.90;;;;;;5062232;28;20028;-72
2022/12/21 08:05:17;;;;;;;13.85;7.57;;;2.20;99.90;;;;;;5059579;28;20017;-73
2022/12/21 08:07:43;;;;;;;12.00;6.35;;;2.20;99.90;;;;;;5041994;28;20375;-73
2022/12/21 08:10:09;;;;;;;11.40;6.55;;;2.10;99.90;;;;;;5031835;28;20021;-72
2022/12/21 08:12:34;;;;;;;11.75;6.57;;;2.30;99.90;;;;;;5032954;28;20037;-73
2022/12/21 08:15:00;;;;;;;13.25;7.30;;;2.40;99.90;;;;;;5031506;28;20025;-73
2022/12/21 08:17:26;;;;;;;11.32;6.50;;;2.60;99.90;;;;;;5036211;28;20612;-73
2022/12/21 08:19:51;;;;;;;13.48;6.20;;;2.60;99.90;;;;;;5037659;28;20498;-73
2022/12/21 08:22:17;;;;;;;10.90;6.20;;;2.60;99.90;;;;;;5040421;28;20029;-73
2022/12/21 08:24:42;;;;;;;13.98;5.88;;;2.70;99.90;;;;;;5036290;28;20020;-73
2022/12/21 08:27:08;;;;;;;12.20;5.90;;;2.80;99.90;;;;;;5042363;28;20033;-73
2022/12/21 08:29:34;;;;;;;12.95;7.07;;;2.60;99.90;;;;;;5048150;28;20155;-73
2022/12/21 08:31:59;;;;;;;11.40;6.20;;;2.70;99.90;;;;;;5046902;28;20411;-72
2022/12/21 08:34:25;;;;;;;10.77;6.05;;;2.70;99.90;;;;;;5047476;28;20040;-73
2022/12/21 08:36:50;;;;;;;12.48;7.07;;;2.60;99.90;;;;;;5048079;28;20104;-72
2022/12/21 08:39:16;;;;;;;13.50;8.57;;;2.70;99.90;;;;;;5041634;28;20024;-72
2022/12/21 08:41:42;;;;;;;15.95;9.13;;;2.90;99.90;;;;;;5047828;28;20025;-71
2022/12/21 08:44:07;;;;;;;18.88;11.27;;;5.10;99.90;;;;;;5048035;28;20025;-73
2022/12/21 08:46:33;;;;;;;17.45;9.57;;;4.40;99.90;;;;;;5047995;28;20052;-72
2022/12/21 08:48:59;;;;;;;17.50;8.90;;;4.00;99.90;;;;;;5044910;28;20569;-72
2022/12/21 08:51:25;;;;;;;14.48;9.32;;;3.60;99.90;;;;;;5026962;28;20052;-73
2022/12/21 08:53:52;;;;;;;19.80;9.57;;;3.50;99.90;;;;;;5026839;28;20148;-73
2022/12/21 08:56:17;;;;;;;18.77;9.82;;;3.30;99.90;;;;;;5031270;28;20172;-73
2022/12/21 08:58:43;;;;;;;23.08;11.25;;;3.10;99.90;;;;;;5026572;28;20120;-72
2022/12/21 09:01:10;;;;;;;21.80;10.57;;;2.90;99.90;;;;;;5024856;28;20045;-72
2022/12/21 09:03:35;;;;;;;20.85;10.25;;;2.90;99.90;;;;;;5023978;28;20883;-73
2022/12/21 09:06:04;;;;;;;20.40;11.70;;;3.00;99.90;;;;;;5030975;28;20139;-73
2022/12/21 09:08:30;;;;;;;17.45;10.63;;;3.10;99.90;;;;;;5031651;28;20052;-72
2022/12/21 09:11:05;;;;;;;21.50;12.00;;;3.20;99.90;;;;;;5031703;28;20476;-72
2022/12/21 09:13:31;;;;;;;;;;;3.20;99.90;;;;;;5031182;28;20036;-72
2022/12/21 09:15:56;;;;;;;18.67;10.77;;;3.10;99.90;;;;;;5030983;28;19909;-72
2022/12/21 09:18:22;;;;;;;18.08;10.80;;;3.00;99.90;;;;;;5031639;28;20052;-72
2022/12/21 09:20:48;;;;;;;19.25;11.65;;;3.00;99.90;;;;;;5024173;28;20040;-72
2022/12/21 09:23:14;;;;;;;20.35;13.02;;;3.10;99.90;;;;;;5023970;28;20043;-73
2022/12/21 09:25:39;;;;;;;19.83;12.25;;;3.20;99.90;;;;;;5025954;28;20033;-72
2022/12/21 09:28:05;;;;;;;23.23;16.00;;;3.20;99.90;;;;;;5027480;28;20236;-73
2022/12/21 09:30:30;;;;;;;18.15;11.00;;;3.40;99.90;;;;;;5024035;28;20033;-72
2022/12/21 09:32:56;;;;;;;22.98;12.02;;;3.30;99.90;;;;;;5024943;28;20700;-72
2022/12/21 09:35:22;;;;;;;30.13;15.10;;;3.40;99.90;;;;;;5033842;28;20039;-72
2022/12/21 09:37:48;;;;;;;24.45;14.10;;;3.40;99.90;;;;;;5030950;28;20029;-72
2022/12/21 09:40:17;;;;;;;20.83;12.02;;;3.50;99.90;;;;;;5028330;28;20486;-73
2022/12/21 09:43:01;;;;;;;20.05;11.90;;;3.50;99.90;;;;;;5032015;28;20017;-72
2022/12/21 09:45:42;;;;;;;17.38;11.15;;;3.60;99.90;;;;;;5037563;28;20486;-72
2022/12/21 09:48:12;;;;;;;18.15;11.60;;;3.70;99.90;;;;;;5022162;28;20061;-72
2022/12/21 09:50:53;;;;;;;20.02;12.00;;;3.70;99.90;;;;;;5030368;28;20032;-73
2022/12/21 09:53:33;;;;;;;24.83;14.50;;;3.70;99.90;;;;;;5032407;28;20044;-72
2022/12/21 09:56:00;;;;;;;23.85;13.45;;;3.90;99.90;;;;;;5024013;28;20099;-72
2022/12/21 09:58:38;;;;;;;25.05;14.02;;;3.80;99.90;;;;;;5036281;28;20033;-73
2022/12/21 10:01:27;;;;;;;21.67;12.93;;;3.70;99.90;;;;;;5022680;28;20025;-73
2022/12/21 10:04:21;;;;;;;21.02;12.80;;;3.50;99.90;;;;;;5007876;28;20091;-72
2022/12/21 10:07:19;;;;;;;23.70;12.23;;;3.50;99.90;;;;;;5030808;28;20029;-73
2022/12/21 10:10:23;;;;;;;23.38;12.32;;;3.70;99.90;;;;;;4999867;28;20045;-72
2022/12/21 10:12:58;;;;;;;17.50;11.07;;;3.90;99.90;;;;;;5026088;28;20049;-72
2022/12/21 10:15:26;;;;;;;19.08;12.63;;;3.90;99.90;;;;;;5032294;28;20078;-72
2022/12/21 10:18:05;;;;;;;20.20;11.50;;;3.90;99.90;;;;;;5027220;28;20033;-72
2022/12/21 10:20:34;;;;;;;17.73;10.32;;;4.00;99.90;;;;;;5023113;28;20025;-73
2022/12/21 10:23:18;;;;;;;21.00;12.20;;;4.00;99.90;;;;;;5035499;28;20033;-73
2022/12/21 10:25:47;;;;;;;19.48;12.57;;;4.00;99.90;;;;;;5030064;28;20025;-72
2022/12/21 10:28:41;;;;;;;18.40;12.32;;;4.10;99.90;;;;;;5032290;28;20082;-72
2022/12/21 10:31:09;;;;;;;19.80;12.63;;;4.10;99.90;;;;;;5029783;28;20036;-72
2022/12/21 10:33:49;;;;;;;17.20;11.60;;;4.10;99.90;;;;;;5024792;28;20040;-73
2022/12/21 10:36:18;;;;;;;18.90;11.25;;;4.10;99.90;;;;;;5024844;28;20036;-72
2022/12/21 10:38:44;;;;;;;23.13;12.20;;;4.10;99.90;;;;;;5026397;28;20028;-72
2022/12/21 10:41:23;;;;;;;21.13;12.35;;;4.10;99.90;;;;;;5036784;28;20021;-72
2022/12/21 10:43:50;;;;;;;22.85;12.88;;;4.00;99.90;;;;;;5029280;28;20033;-72
2022/12/21 10:46:18;;;;;;;18.55;12.35;;;4.00;99.90;;;;;;5029576;28;20582;-73
2022/12/21 10:48:49;;;;;;;20.02;12.60;;;4.10;99.90;;;;;;5039017;28;20040;-72
2022/12/21 10:51:32;;;;;;;21.58;11.82;;;4.10;99.90;;;;;;5034291;28;20662;-73
2022/12/21 10:54:03;;;;;;;26.25;12.40;;;4.20;99.90;;;;;;5026353;28;20036;-73
2022/12/21 10:56:32;;;;;;;23.15;12.23;;;4.30;99.90;;;;;;5040415;28;20466;-73
2022/12/21 10:59:22;;;;;;;21.48;13.13;;;4.30;99.90;;;;;;5033554;28;20032;-72
2022/12/21 11:01:48;;;;;;;21.77;11.25;;;4.40;99.90;;;;;;5030542;28;20369;-72
2022/12/21 11:04:22;;;;;;;19.20;11.88;;;4.50;99.90;;;;;;5030310;28;20578;-72
2022/12/21 11:06:55;;;;;;;27.00;12.13;;;4.50;99.90;;;;;;5033401;28;20091;-73
2022/12/21 11:09:33;;;;;;;17.17;11.73;;;4.60;99.90;;;;;;5021256;28;20033;-73
2022/12/21 11:12:23;;;;;;;20.25;11.73;;;4.50;99.90;;;;;;5029174;28;25491;-72
2022/12/21 11:14:49;;;;;;;19.23;10.32;;;4.50;99.90;;;;;;5039978;28;20112;-72
2022/12/21 11:17:25;;;;;;;18.45;10.27;;;4.60;99.90;;;;;;5033121;28;20120;-72
2022/12/21 11:19:59;;;;;;;15.50;9.77;;;4.60;99.90;;;;;;5031216;28;20580;-73
2022/12/21 11:22:28;;;;;;;14.20;8.80;;;4.50;99.90;;;;;;5034659;28;20112;-72
2022/12/21 11:24:57;;;;;;;12.98;7.93;;;4.60;99.90;;;;;;5039124;28;20021;-73
2022/12/21 11:27:27;;;;;;;13.88;7.88;;;4.50;99.90;;;;;;5024518;28;20052;-73
2022/12/21 11:30:08;;;;;;;19.23;6.88;;;4.50;99.90;;;;;;5034923;28;20381;-72
2022/12/21 11:32:35;;;;;;;10.40;6.40;;;4.50;99.90;;;;;;5027812;28;20044;-72
2022/12/21 11:35:16;;;;;;;12.05;7.47;;;4.50;99.90;;;;;;5032535;28;20072;-73
2022/12/21 11:37:45;;;;;;;13.10;7.15;;;4.60;99.90;;;;;;5033581;28;20034;-73
2022/12/21 11:40:11;;;;;;;13.48;7.05;;;4.60;99.90;;;;;;5034709;28;20068;-73
2022/12/21 11:42:50;;;;;;;11.10;6.60;;;4.60;99.90;;;;;;5036053;28;20029;-73
2022/12/21 11:45:21;;;;;;;11.23;6.80;;;4.70;99.90;;;;;;5028879;28;20037;-72
2022/12/21 11:47:59;;;;;;;10.80;6.68;;;4.70;99.90;;;;;;5037562;28;20056;-73
2022/12/21 11:50:35;;;;;;;9.95;6.15;;;4.70;99.90;;;;;;5033205;28;20032;-73
2022/12/21 11:53:13;;;;;;;15.02;6.55;;;4.80;99.90;;;;;;5039097;28;20094;-73
2022/12/21 11:56:03;;;;;;;12.02;7.30;;;4.90;99.90;;;;;;5027602;28;20026;-73
2022/12/21 11:59:04;;;;;;;17.80;8.60;;;4.80;99.90;;;;;;5027367;28;20060;-73
2022/12/21 12:01:51;;;;;;;23.23;12.48;;;4.80;99.90;;;;;;5026323;28;20034;-73
2022/12/21 12:04:29;;;;;;;20.23;10.23;;;4.80;99.90;;;;;;5024680;28;20079;-73
2022/12/21 12:07:25;;;;;;;12.80;8.68;;;4.70;99.90;;;;;;5039453;28;20077;-72
2022/12/21 12:09:59;;;;;;;15.57;8.32;;;4.70;99.90;;;;;;5023077;28;20182;-73
2022/12/21 12:12:31;;;;;;;;;;;4.70;99.90;;;;;;5039649;28;20040;-73
2022/12/21 12:15:06;;;;;;;14.65;8.13;;;4.60;99.90;;;;;;5032423;28;19919;-72
2022/12/21 12:17:57;;;;;;;13.00;8.32;;;4.60;99.90;;;;;;5030961;28;20086;-73
2022/12/21 12:20:41;;;;;;;13.10;8.23;;;4.70;99.90;;;;;;5031837;28;20479;-72
2022/12/21 12:23:15;;;;;;;12.60;8.15;;;4.70;99.90;;;;;;5024483;28;20094;-73
2022/12/21 12:25:50;;;;;;;;;;;4.60;99.90;;;;;;5029971;28;20033;-73
2022/12/21 12:28:34;;;;;;;15.75;7.53;;;4.60;99.90;;;;;;5024551;28;20003;-72
2022/12/21 12:31:37;;;;;;;15.63;8.70;;;4.70;99.90;;;;;;5042878;28;20131;-73
2022/12/21 12:34:30;;;;;;;17.67;9.32;;;4.50;99.90;;;;;;5032065;28;20280;-73
2022/12/21 12:37:08;;;;;;;15.35;8.48;;;4.70;99.90;;;;;;5024809;28;20163;-72
2022/12/21 12:40:01;;;;;;;15.43;9.60;;;4.80;99.90;;;;;;5036685;28;20040;-72
2022/12/21 12:42:49;;;;;;;13.88;9.50;;;5.00;99.90;;;;;;5032028;28;20379;-72
2022/12/21 12:45:38;;;;;;;16.48;9.05;;;5.00;99.90;;;;;;5029787;28;20033;-73
2022/12/21 12:48:32;;;;;;;17.58;9.52;;;5.00;99.90;;;;;;5030508;28;20033;-73
2022/12/21 12:51:13;;;;;;;15.55;9.68;;;5.00;99.90;;;;;;5031003;28;20029;-72
2022/12/21 12:53:50;;;;;;;19.77;12.13;;;5.20;99.90;;;;;;5035281;28;20079;-72
2022/12/21 12:56:24;;;;;;;19.13;11.50;;;5.10;99.90;;;;;;5029969;28;20039;-73
2022/12/21 12:59:02;;;;;;;15.63;9.00;;;5.10;99.90;;;;;;5038430;28;20032;-72
2022/12/21 13:01:31;;;;;;;17.23;10.43;;;5.00;99.90;;;;;;5025725;28;20025;-72
2022/12/21 13:04:22;;;;;;;17.98;10.15;;;5.10;99.90;;;;;;5022128;28;20030;-73
2022/12/21 13:07:01;;;;;;;15.35;9.68;;;5.20;99.90;;;;;;5029029;28;20061;-73
2022/12/21 13:09:48;;;;;;;17.15;8.93;;;5.10;99.90;;;;;;5032012;28;20029;-72
2022/12/21 13:12:41;;;;;;;15.70;9.52;;;5.00;99.90;;;;;;5034959;28;20043;-72
2022/12/21 13:15:34;;;;;;;17.42;10.10;;;5.10;99.90;;;;;;5030678;28;20039;-73
2022/12/21 13:18:02;;;;;;;19.35;10.38;;;5.20;99.90;;;;;;5032350;28;20037;-73
2022/12/21 13:20:29;;;;;;;20.23;13.93;;;5.30;99.90;;;;;;5038630;28;20384;-73
2022/12/21 13:23:04;;;;;;;17.23;9.73;;;5.40;99.90;;;;;;5030652;28;20064;-73
2022/12/21 13:25:29;;;;;;;;;;;5.50;99.90;;;;;;5039825;28;20040;-73
2022/12/21 13:27:57;;;;;;;22.20;11.27;;;5.40;99.90;;;;;;5035443;28;20294;-73